createdAt,value
2018-07-09T00:00:21.644Z,15.70
2018-07-09T00:02:51.763Z,15.70
2018-07-09T00:05:21.788Z,15.60
2018-07-09T00:07:51.950Z,15.60
2018-07-09T00:10:33.024Z,15.60
2018-07-09T00:13:03.092Z,15.60
2018-07-09T00:15:33.160Z,15.60
2018-07-09T00:18:03.285Z,15.60
2018-07-09T00:23:02.995Z,15.50
2018-07-09T00:25:33.156Z,15.40
2018-07-09T00:28:03.256Z,15.40
2018-07-09T00:30:33.344Z,15.40
2018-07-09T00:33:03.460Z,15.30
2018-07-09T00:35:33.553Z,15.30
2018-07-09T00:38:03.816Z,15.30
2018-07-09T00:40:33.977Z,15.30
2018-07-09T00:43:03.992Z,15.20
2018-07-09T00:45:34.155Z,15.10
2018-07-09T00:48:04.516Z,15.10
2018-07-09T00:50:34.584Z,15.10
2018-07-09T00:53:04.706Z,15.00
2018-07-09T00:55:34.960Z,14.90
2018-07-09T00:58:05.188Z,14.80
2018-07-09T01:00:35.323Z,14.80
2018-07-09T01:03:05.540Z,14.80
2018-07-09T01:05:35.638Z,14.80
2018-07-09T01:08:05.843Z,14.70
2018-07-09T01:10:45.845Z,14.70
2018-07-09T01:13:16.020Z,14.70
2018-07-09T01:15:46.229Z,14.60
2018-07-09T01:18:16.388Z,14.60
2018-07-09T01:20:46.669Z,14.60
2018-07-09T01:23:16.883Z,14.50
2018-07-09T01:25:47.041Z,14.40
2018-07-09T01:28:17.137Z,14.40
2018-07-09T01:30:47.452Z,14.40
2018-07-09T01:33:17.576Z,14.40
2018-07-09T01:35:47.775Z,14.40
2018-07-09T01:38:17.908Z,14.30
2018-07-09T01:40:48.017Z,14.30
2018-07-09T01:43:18.198Z,14.20
2018-07-09T01:45:48.388Z,14.10
2018-07-09T01:48:18.541Z,14.10
2018-07-09T01:50:48.672Z,14.10
2018-07-09T01:53:18.752Z,14.10
2018-07-09T01:55:48.874Z,14.10
2018-07-09T01:58:18.994Z,14.00
2018-07-09T02:00:49.224Z,14.00
2018-07-09T02:03:19.408Z,14.00
2018-07-09T02:05:49.555Z,14.00
2018-07-09T02:08:19.676Z,13.90
2018-07-09T02:10:49.880Z,13.90
2018-07-09T02:13:20.173Z,13.90
2018-07-09T02:15:50.313Z,13.90
2018-07-09T02:18:20.340Z,13.90
2018-07-09T02:20:50.496Z,13.90
2018-07-09T02:23:20.803Z,13.90
2018-07-09T02:25:51.269Z,13.90
2018-07-09T02:28:21.560Z,13.90
2018-07-09T02:30:51.712Z,13.90
2018-07-09T02:33:21.833Z,13.80
2018-07-09T02:35:52.008Z,13.90
2018-07-09T02:38:22.110Z,13.90
2018-07-09T02:40:52.278Z,13.90
2018-07-09T02:43:22.451Z,13.80
2018-07-09T02:45:52.530Z,13.80
2018-07-09T02:48:22.607Z,13.80
2018-07-09T02:50:52.728Z,13.80
2018-07-09T02:55:52.388Z,13.80
2018-07-09T02:58:22.565Z,13.80
2018-07-09T03:00:52.736Z,13.80
2018-07-09T03:03:22.795Z,13.80
2018-07-09T03:05:52.784Z,13.80
2018-07-09T03:08:22.880Z,13.80
2018-07-09T03:10:53.033Z,13.80
2018-07-09T03:13:23.116Z,13.80
2018-07-09T03:15:53.220Z,13.80
2018-07-09T03:18:23.288Z,13.90
2018-07-09T03:20:53.388Z,13.90
2018-07-09T03:23:23.495Z,13.90
2018-07-09T03:28:23.080Z,14.10
2018-07-09T03:30:53.261Z,14.10
2018-07-09T03:33:23.355Z,14.20
2018-07-09T03:35:53.508Z,14.30
2018-07-09T03:38:23.633Z,14.40
2018-07-09T03:40:53.816Z,14.40
2018-07-09T03:43:23.859Z,14.50
2018-07-09T03:45:53.970Z,14.60
2018-07-09T03:48:24.124Z,14.70
2018-07-09T03:50:54.317Z,14.80
2018-07-09T03:53:24.433Z,14.80
2018-07-09T03:55:54.856Z,15.00
2018-07-09T03:58:25.017Z,15.10
2018-07-09T04:00:55.160Z,15.10
2018-07-09T04:03:25.240Z,15.20
2018-07-09T04:05:55.360Z,15.30
2018-07-09T04:08:25.496Z,15.40
2018-07-09T04:10:55.587Z,15.50
2018-07-09T04:13:25.724Z,15.60
2018-07-09T04:15:55.852Z,15.70
2018-07-09T04:18:26.244Z,15.80
2018-07-09T04:20:57.063Z,15.90
2018-07-09T04:23:27.191Z,15.90
2018-07-09T04:25:57.236Z,16.00
2018-07-09T04:28:27.392Z,16.10
2018-07-09T04:30:57.489Z,16.20
2018-07-09T04:33:27.590Z,16.30
2018-07-09T04:35:57.691Z,16.30
2018-07-09T04:38:27.798Z,16.50
2018-07-09T04:40:58.061Z,16.50
2018-07-09T04:43:28.180Z,16.60
2018-07-09T04:45:58.304Z,16.70
2018-07-09T04:48:28.436Z,16.70
2018-07-09T04:50:58.512Z,16.80
2018-07-09T04:53:28.633Z,16.80
2018-07-09T04:55:58.720Z,16.90
2018-07-09T04:58:28.892Z,16.90
2018-07-09T05:03:28.520Z,17.00
2018-07-09T05:05:58.680Z,17.10
2018-07-09T05:08:28.785Z,17.20
2018-07-09T05:10:58.925Z,17.30
2018-07-09T05:13:29.061Z,17.40
2018-07-09T05:15:59.243Z,17.50
2018-07-09T05:18:29.334Z,17.60
2018-07-09T05:20:59.460Z,17.70
2018-07-09T05:23:29.577Z,17.80
2018-07-09T05:25:59.716Z,17.90
2018-07-09T05:28:29.823Z,18.00
2018-07-09T05:30:59.944Z,18.10
2018-07-09T05:33:30.078Z,18.10
2018-07-09T05:36:00.132Z,18.20
2018-07-09T05:38:30.300Z,18.30
2018-07-09T05:41:00.413Z,18.50
2018-07-09T05:43:30.535Z,18.60
2018-07-09T05:46:00.712Z,18.70
2018-07-09T05:48:30.863Z,18.90
2018-07-09T05:51:01.001Z,19.00
2018-07-09T05:53:31.138Z,19.10
2018-07-09T05:56:01.269Z,19.10
2018-07-09T05:58:31.320Z,19.20
2018-07-09T06:01:01.479Z,19.20
2018-07-09T06:03:31.549Z,19.20
2018-07-09T06:06:01.691Z,19.30
2018-07-09T06:08:31.856Z,19.30
2018-07-09T06:11:02.012Z,19.40
2018-07-09T06:13:32.149Z,19.50
2018-07-09T06:16:02.308Z,19.60
2018-07-09T06:18:32.460Z,19.70
2018-07-09T06:21:02.638Z,19.80
2018-07-09T06:23:32.812Z,20.00
2018-07-09T06:28:32.392Z,20.20
2018-07-09T06:31:02.513Z,20.20
2018-07-09T06:33:32.670Z,20.30
2018-07-09T06:36:02.812Z,20.40
2018-07-09T06:38:33.000Z,20.50
2018-07-09T06:41:03.127Z,20.50
2018-07-09T06:43:33.246Z,20.60
2018-07-09T06:46:03.430Z,20.60
2018-07-09T06:48:33.534Z,20.60
2018-07-09T06:51:03.900Z,20.70
2018-07-09T06:53:33.995Z,20.70
2018-07-09T06:56:04.169Z,20.80
2018-07-09T07:01:03.896Z,21.20
2018-07-09T07:03:34.068Z,21.30
2018-07-09T07:06:04.179Z,21.40
2018-07-09T07:08:34.236Z,21.40
2018-07-09T07:11:04.492Z,21.40
2018-07-09T07:13:34.604Z,21.50
2018-07-09T07:16:04.801Z,21.60
2018-07-09T07:18:34.921Z,21.70
2018-07-09T07:21:05.136Z,21.80
2018-07-09T07:23:35.172Z,21.80
2018-07-09T07:26:05.328Z,21.70
2018-07-09T07:28:35.484Z,21.70
2018-07-09T07:31:05.620Z,21.60
2018-07-09T07:33:35.820Z,21.50
2018-07-09T07:36:06.240Z,21.60
2018-07-09T07:38:36.385Z,21.60
2018-07-09T07:41:06.520Z,21.60
2018-07-09T07:43:36.785Z,21.60
2018-07-09T07:46:06.935Z,21.50
2018-07-09T07:48:37.100Z,21.50
2018-07-09T07:51:07.241Z,21.50
2018-07-09T07:53:37.476Z,21.60
2018-07-09T07:56:07.558Z,21.50
2018-07-09T07:58:37.712Z,21.40
2018-07-09T08:01:07.855Z,21.40
2018-07-09T08:03:37.952Z,21.40
2018-07-09T08:06:09.200Z,21.50
2018-07-09T08:08:40.033Z,21.70
2018-07-09T08:11:11.393Z,21.90
2018-07-09T08:13:40.398Z,22.20
2018-07-09T08:16:10.463Z,22.40
2018-07-09T08:18:40.548Z,22.50
2018-07-09T08:21:10.689Z,22.60
2018-07-09T08:23:41.620Z,22.70
2018-07-09T08:26:11.705Z,22.90
2018-07-09T08:28:41.854Z,22.90
2018-07-09T08:33:41.610Z,23.30
2018-07-09T08:36:11.768Z,23.30
2018-07-09T08:38:41.933Z,23.40
2018-07-09T08:41:12.045Z,23.50
2018-07-09T08:43:42.152Z,23.50
2018-07-09T08:46:12.292Z,23.60
2018-07-09T08:48:42.410Z,23.70
2018-07-09T08:51:12.520Z,23.80
2018-07-09T08:53:42.836Z,23.90
2018-07-09T08:56:12.981Z,24.10
2018-07-09T08:58:43.068Z,24.00
2018-07-09T09:01:16.098Z,24.10
2018-07-09T09:03:46.281Z,24.10
2018-07-09T09:06:16.460Z,24.30
2018-07-09T09:08:46.587Z,24.30
2018-07-09T09:11:16.707Z,24.30
2018-07-09T09:13:46.801Z,24.40
2018-07-09T09:16:16.927Z,24.30
2018-07-09T09:18:47.058Z,24.10
2018-07-09T09:21:17.304Z,24.30
2018-07-09T09:23:47.440Z,24.60
2018-07-09T09:26:17.539Z,24.70
2018-07-09T09:28:47.744Z,24.60
2018-07-09T09:31:17.903Z,24.40
2018-07-09T09:33:48.024Z,24.40
2018-07-09T09:36:18.168Z,24.30
2018-07-09T09:41:17.934Z,24.10
2018-07-09T09:43:48.105Z,23.90
2018-07-09T09:46:18.293Z,23.80
2018-07-09T09:48:48.413Z,23.80
2018-07-09T09:51:18.524Z,23.70
2018-07-09T09:53:48.709Z,23.70
2018-07-09T09:56:18.792Z,24.00
2018-07-09T09:58:48.956Z,24.00
2018-07-09T10:01:19.122Z,23.90
2018-07-09T10:03:49.228Z,23.90
2018-07-09T10:06:19.663Z,24.00
2018-07-09T10:08:49.736Z,24.30
2018-07-09T10:11:19.876Z,24.30
2018-07-09T10:13:50.100Z,24.30
2018-07-09T10:16:20.300Z,24.40
2018-07-09T10:18:50.412Z,24.50
2018-07-09T10:21:20.529Z,24.80
2018-07-09T10:23:50.653Z,25.10
2018-07-09T10:28:50.788Z,25.20
2018-07-09T10:31:20.916Z,25.20
2018-07-09T10:33:50.969Z,25.30
2018-07-09T10:36:21.121Z,25.30
2018-07-09T10:38:51.220Z,25.60
2018-07-09T10:41:21.364Z,25.90
2018-07-09T10:43:51.553Z,26.10
2018-07-09T10:46:21.670Z,26.30
2018-07-09T10:48:51.772Z,26.40
2018-07-09T10:51:21.854Z,26.60
2018-07-09T10:53:52.004Z,26.90
2018-07-09T10:56:22.097Z,26.60
2018-07-09T10:58:52.204Z,26.80
2018-07-09T11:01:22.363Z,27.10
2018-07-09T11:03:52.492Z,27.30
2018-07-09T11:06:22.634Z,27.30
2018-07-09T11:08:52.903Z,27.50
2018-07-09T11:11:23.042Z,27.40
2018-07-09T11:13:53.240Z,27.30
2018-07-09T11:16:23.369Z,27.20
2018-07-09T11:18:53.500Z,27.10
2018-07-09T11:21:23.636Z,27.30
2018-07-09T11:23:53.744Z,27.50
2018-07-09T11:26:23.888Z,27.60
2018-07-09T11:28:54.008Z,27.80
2018-07-09T11:31:24.336Z,28.00
2018-07-09T11:33:54.502Z,28.10
2018-07-09T11:36:24.642Z,28.00
2018-07-09T11:38:54.709Z,28.20
2018-07-09T11:41:24.818Z,28.30
2018-07-09T11:43:54.912Z,28.40
2018-07-09T11:46:25.096Z,28.40
2018-07-09T11:48:55.211Z,28.40
2018-07-09T11:51:25.343Z,28.40
2018-07-09T11:53:55.472Z,28.40
2018-07-09T11:56:25.568Z,28.70
2018-07-09T11:58:55.887Z,28.50
2018-07-09T12:01:25.919Z,28.70
2018-07-09T12:03:56.044Z,28.90
2018-07-09T12:06:26.172Z,28.60
2018-07-09T12:08:56.337Z,28.60
2018-07-09T12:11:26.525Z,28.50
2018-07-09T12:13:56.596Z,28.80
2018-07-09T12:16:26.704Z,28.90
2018-07-09T12:18:56.879Z,28.80
2018-07-09T12:21:26.998Z,28.70
2018-07-09T12:23:57.151Z,29.00
2018-07-09T12:26:27.270Z,29.20
2018-07-09T12:28:57.431Z,28.80
2018-07-09T12:31:27.564Z,28.90
2018-07-09T12:33:57.721Z,29.10
2018-07-09T12:36:28.883Z,29.00
2018-07-09T12:38:58.895Z,29.10
2018-07-09T12:41:29.048Z,29.00
2018-07-09T12:43:59.176Z,28.90
2018-07-09T12:46:31.188Z,29.20
2018-07-09T12:49:02.206Z,29.00
2018-07-09T12:51:32.292Z,29.20
2018-07-09T12:54:02.414Z,29.20
2018-07-09T12:56:32.932Z,29.40
2018-07-09T12:59:03.326Z,29.20
2018-07-09T13:01:33.589Z,29.40
2018-07-09T13:04:03.939Z,29.40
2018-07-09T13:06:34.012Z,29.40
2018-07-09T13:09:05.347Z,29.40
2018-07-09T13:11:35.441Z,29.50
2018-07-09T13:14:05.766Z,29.10
2018-07-09T13:16:35.876Z,29.00
2018-07-09T13:19:06.033Z,28.70
2018-07-09T13:21:36.201Z,28.40
2018-07-09T13:24:06.328Z,28.40
2018-07-09T13:26:36.449Z,28.40
2018-07-09T13:29:06.704Z,28.30
2018-07-09T13:31:36.801Z,28.20
2018-07-09T13:34:06.948Z,28.10
2018-07-09T13:36:37.053Z,28.00
2018-07-09T13:39:07.736Z,28.00
2018-07-09T13:41:37.909Z,27.70
2018-07-09T13:44:08.138Z,27.60
2018-07-09T13:46:38.224Z,27.40
2018-07-09T13:49:08.487Z,27.40
2018-07-09T13:51:38.544Z,27.50
2018-07-09T13:54:08.722Z,27.30
2018-07-09T13:56:39.264Z,27.20
2018-07-09T13:59:09.372Z,27.10
2018-07-09T14:01:39.517Z,27.10
2018-07-09T14:04:09.689Z,26.70
2018-07-09T14:06:40.079Z,26.60
2018-07-09T14:09:10.381Z,26.40
2018-07-09T14:11:40.469Z,26.50
2018-07-09T14:14:10.614Z,26.40
2018-07-09T14:16:40.700Z,26.40
2018-07-09T14:19:22.083Z,26.40
2018-07-09T14:24:21.780Z,26.30
2018-07-09T14:26:51.963Z,26.20
2018-07-09T14:29:22.116Z,26.10
2018-07-09T14:31:52.396Z,26.00
2018-07-09T14:34:22.526Z,26.10
2018-07-09T14:36:52.674Z,26.10
2018-07-09T14:39:22.786Z,26.10
2018-07-09T14:41:52.811Z,26.10
2018-07-09T14:44:22.817Z,25.90
2018-07-09T14:46:52.892Z,25.90
2018-07-09T14:49:23.040Z,25.80
2018-07-09T14:51:53.232Z,25.60
2018-07-09T14:54:23.344Z,25.50
2018-07-09T14:56:53.749Z,25.50
2018-07-09T14:59:23.827Z,25.40
2018-07-09T15:01:53.916Z,25.40
2018-07-09T15:04:24.238Z,25.30
2018-07-09T15:06:54.356Z,25.20
2018-07-09T15:09:24.437Z,25.30
2018-07-09T15:11:54.519Z,25.30
2018-07-09T15:14:24.666Z,25.20
2018-07-09T15:21:53.984Z,25.10
2018-07-09T15:26:53.596Z,25.20
2018-07-09T15:29:23.663Z,25.20
2018-07-09T15:32:04.974Z,25.00
2018-07-09T15:34:35.206Z,25.20
2018-07-09T15:37:05.488Z,25.10
2018-07-09T15:39:35.849Z,25.10
2018-07-09T15:42:05.976Z,25.20
2018-07-09T15:44:36.144Z,25.30
2018-07-09T15:47:06.448Z,25.20
2018-07-09T15:49:36.596Z,25.10
2018-07-09T15:52:06.763Z,25.20
2018-07-09T15:54:36.884Z,25.30
2018-07-09T15:57:06.992Z,25.20
2018-07-09T15:59:37.194Z,25.10
2018-07-09T16:02:07.315Z,25.10
2018-07-09T16:04:37.563Z,25.00
2018-07-09T16:07:07.760Z,24.90
2018-07-09T16:09:37.880Z,24.70
2018-07-09T16:19:36.421Z,24.50
2018-07-09T16:22:06.608Z,24.50
2018-07-09T16:24:36.676Z,24.40
2018-07-09T16:27:06.811Z,24.50
2018-07-09T16:29:36.940Z,24.30
2018-07-09T16:32:07.022Z,24.30
2018-07-09T16:34:37.088Z,24.30
2018-07-09T16:37:07.272Z,24.30
2018-07-09T16:39:37.398Z,24.20
2018-07-09T16:42:07.944Z,24.20
2018-07-09T16:44:38.048Z,24.10
2018-07-09T16:47:08.196Z,24.10
2018-07-09T16:49:38.316Z,24.00
2018-07-09T16:52:08.632Z,23.90
2018-07-09T16:54:41.743Z,23.90
2018-07-09T16:57:11.708Z,23.90
2018-07-09T17:02:11.212Z,23.80
2018-07-09T17:04:41.325Z,23.70
2018-07-09T17:07:11.608Z,23.60
2018-07-09T17:09:41.725Z,23.60
2018-07-09T17:12:11.784Z,23.50
2018-07-09T17:14:41.952Z,23.50
2018-07-09T17:17:12.004Z,23.50
2018-07-09T17:19:42.144Z,23.40
2018-07-09T17:22:12.319Z,23.40
2018-07-09T17:24:42.343Z,23.40
2018-07-09T17:27:12.524Z,23.30
2018-07-09T17:29:42.520Z,23.20
2018-07-09T17:32:12.675Z,23.20
2018-07-09T17:34:42.743Z,23.20
2018-07-09T17:37:12.819Z,23.20
2018-07-09T17:39:42.967Z,23.10
2018-07-09T17:42:13.044Z,23.10
2018-07-09T17:44:43.240Z,23.00
2018-07-09T17:47:13.411Z,23.00
2018-07-09T17:49:43.476Z,22.90
2018-07-09T17:52:13.588Z,22.90
2018-07-09T17:54:43.657Z,22.80
2018-07-09T17:57:13.801Z,22.60
2018-07-09T17:59:43.868Z,22.60
2018-07-09T18:02:13.996Z,22.50
2018-07-09T18:04:44.100Z,22.50
2018-07-09T18:07:14.240Z,22.50
2018-07-09T18:09:44.329Z,22.50
2018-07-09T18:12:14.419Z,22.40
2018-07-09T18:14:44.505Z,22.40
2018-07-09T18:17:14.510Z,22.30
2018-07-09T18:19:44.655Z,22.20
2018-07-09T18:22:14.748Z,22.20
2018-07-09T18:24:44.852Z,22.10
2018-07-09T18:27:14.965Z,22.00
2018-07-09T18:29:45.117Z,22.00
2018-07-09T18:32:15.275Z,21.90
2018-07-09T18:34:45.404Z,21.80
2018-07-09T18:37:15.531Z,21.80
2018-07-09T18:39:45.603Z,21.70
2018-07-09T18:44:45.319Z,21.60
2018-07-09T18:47:15.531Z,21.50
2018-07-09T18:49:45.660Z,21.50
2018-07-09T18:52:15.784Z,21.40
2018-07-09T18:54:45.958Z,21.30
2018-07-09T18:57:16.072Z,21.30
2018-07-09T19:02:15.796Z,21.20
2018-07-09T19:04:46.178Z,21.10
2018-07-09T19:07:23.884Z,21.10
2018-07-09T19:09:54.174Z,21.10
2018-07-09T19:12:24.768Z,21.10
2018-07-09T19:14:54.887Z,21.00
2018-07-09T19:18:03.820Z,21.00
2018-07-09T19:20:45.058Z,20.90
2018-07-09T19:23:13.964Z,20.80
2018-07-09T19:25:42.911Z,20.70
2018-07-09T19:28:11.851Z,20.70
2018-07-09T19:30:40.741Z,20.70
2018-07-09T19:33:09.643Z,20.70
2018-07-09T19:35:38.518Z,20.60
2018-07-09T19:38:07.400Z,20.60
2018-07-09T19:40:36.237Z,20.60
2018-07-09T19:43:05.097Z,20.50
2018-07-09T19:45:34.057Z,20.50
2018-07-09T19:48:02.985Z,20.50
2018-07-09T19:50:31.880Z,20.40
2018-07-09T19:53:00.825Z,20.40
2018-07-09T19:55:29.752Z,20.40
2018-07-09T19:57:58.674Z,20.30
2018-07-09T20:00:27.599Z,20.20
2018-07-09T20:02:56.554Z,20.20
2018-07-09T20:05:25.384Z,20.10
2018-07-09T20:07:54.312Z,20.00
2018-07-09T20:10:28.517Z,20.00
2018-07-09T20:15:37.004Z,19.90
2018-07-09T20:18:05.901Z,19.90
2018-07-09T20:20:34.788Z,19.80
2018-07-09T20:23:03.673Z,19.70
2018-07-09T20:25:32.546Z,19.70
2018-07-09T20:28:01.448Z,19.70
2018-07-09T20:30:30.327Z,19.60
2018-07-09T20:32:59.243Z,19.50
2018-07-09T20:35:28.124Z,19.50
2018-07-09T20:37:56.956Z,19.40
2018-07-09T20:40:25.871Z,19.30
2018-07-09T20:42:54.748Z,19.20
2018-07-09T20:45:23.644Z,19.20
2018-07-09T20:47:52.569Z,19.10
2018-07-09T20:50:21.448Z,19.00
2018-07-09T20:52:50.336Z,19.00
2018-07-09T20:55:19.234Z,18.90
2018-07-09T20:57:48.160Z,18.90
2018-07-09T21:00:17.052Z,18.90
2018-07-09T21:02:45.912Z,18.80
2018-07-09T21:05:14.798Z,18.80
2018-07-09T21:07:43.653Z,18.70
2018-07-09T21:10:12.560Z,18.70
2018-07-09T21:12:46.847Z,18.60
2018-07-09T21:15:15.788Z,18.60
2018-07-09T21:17:44.656Z,18.50
2018-07-09T21:20:13.573Z,18.40
2018-07-09T21:22:42.503Z,18.40
2018-07-09T21:25:11.344Z,18.30
2018-07-09T21:27:40.339Z,18.30
2018-07-09T21:30:09.256Z,18.20
2018-07-09T21:35:07.148Z,18.10
2018-07-09T21:37:36.146Z,18.00
2018-07-09T21:40:04.920Z,18.00
2018-07-09T21:42:33.728Z,17.90
2018-07-09T21:45:02.741Z,17.90
2018-07-09T21:47:31.616Z,17.90
2018-07-09T21:50:00.551Z,17.80
2018-07-09T21:52:36.012Z,17.80
2018-07-09T21:55:04.957Z,17.80
2018-07-09T21:57:33.832Z,17.80
2018-07-09T22:00:02.708Z,17.70
2018-07-09T22:02:31.631Z,17.70
2018-07-09T22:05:00.513Z,17.70
2018-07-09T22:07:29.457Z,17.70
2018-07-09T22:09:58.289Z,17.60
2018-07-09T22:12:27.172Z,17.60
2018-07-09T22:14:56.050Z,17.50
2018-07-09T22:17:24.908Z,17.40
2018-07-09T22:22:22.628Z,17.30
2018-07-09T22:24:51.573Z,17.20
2018-07-09T22:27:20.416Z,17.20
2018-07-09T22:29:49.255Z,17.10
2018-07-09T22:32:19.348Z,17.10
2018-07-09T22:34:49.468Z,17.00
2018-07-09T22:37:20.060Z,17.00
2018-07-09T22:39:50.191Z,17.00
2018-07-09T22:42:20.296Z,17.00
2018-07-09T22:44:50.460Z,16.90
2018-07-09T22:47:20.619Z,16.90
2018-07-09T22:49:50.656Z,17.00
2018-07-09T22:52:20.889Z,17.00
2018-07-09T22:55:01.985Z,17.00
2018-07-09T22:57:32.174Z,17.00
2018-07-09T23:00:02.408Z,17.10
2018-07-09T23:02:32.504Z,17.10
2018-07-09T23:05:02.632Z,17.10
2018-07-09T23:07:36.270Z,17.10
2018-07-09T23:10:17.533Z,17.10
2018-07-09T23:15:31.236Z,17.10
2018-07-09T23:18:18.316Z,17.10
2018-07-09T23:20:59.427Z,17.00
2018-07-09T23:23:28.288Z,17.00
2018-07-09T23:25:57.104Z,17.00
2018-07-09T23:28:25.977Z,17.00
2018-07-09T23:30:54.788Z,17.00
2018-07-09T23:33:23.691Z,17.00
2018-07-09T23:35:52.589Z,17.00
2018-07-09T23:38:21.443Z,17.00
2018-07-09T23:40:50.300Z,17.00
2018-07-09T23:43:20.172Z,17.00
2018-07-09T23:45:49.118Z,17.00
2018-07-09T23:48:18.044Z,17.00
2018-07-09T23:50:46.995Z,17.10
2018-07-09T23:53:15.820Z,17.00
2018-07-09T23:55:48.104Z,17.10
2018-07-09T23:58:29.063Z,17.10
